Aeroporto :
LOGIN :

Iscrizione | Disclaimer

   EN    FR    IT 

 










Sommario :    VFR   VFR Marginale   IFR   IFR Intensivo   IFR Molto Intensivo
Visibilità : 
Base nubi : 
>= 8 km
>= 3000ft
5 / 8 km
1000 / 3000 ft
1500m / 5 km
500 / 1000 ft
800 / 1500m
200 / 500 ft
< 800m
< 200 ft
Simboli :   Temporali  Nebbia  Neve Forte  Precipitazioni Forti  Vento > 20 kt
SIGMETs :   Varie  Temporali  Ghiacco  Turbolenza  Onda orograficha  Ceneri Vulcaniche






- Altitudine del aeroporto : 461 ft
- Codice IATA : WIE


ETOU - Wiesbaden Army

ULTIMO METAR :
  • 292328Z AUTO 00000KT 9999 -RA FEW007 OVC015 14/13 A2977 RMK AO2 RAE2256RAB28 SLP083 $

METARs OBSOLETI :
  • 292256Z AUTO 18003KT 9999 FEW006 BKN014 BKN021 OVC065 14/12 A2978 RMK AO2 RAE56 CIG 014V022 BKN014 V SCT SLP087 $
  • 292238Z AUTO 20004KT 9999 -RA SCT017 BKN022 OVC042 15/12 A2979 RMK AO2 RAB38 BKN V OVC CIG 021 RWY07 SLP090 $
  • 292230Z AUTO 23005KT 9999 BKN020 OVC085 15/12 A2979 RMK AO2 SLP090 $
  • 292215Z AUTO 20004KT 9999 BKN016 OVC085 14/12 A2979 RMK AO2 CIG 016V085 BKN V SCT SLP090 $
  • 292155Z AUTO 20003KT 9999 FEW016 SCT021 BKN044 BKN055 OVC085 14/12 A2980 RMK AO2 SLP093 T01440115 $
  • 292145Z AUTO 24005KT 9999 FEW016 SCT021 BKN044 BKN055 OVC080 15/12 A2980 RMK AO2 SLP093 $
  • 292055Z AUTO 23008KT 9999 OVC018 16/12 A2981 RMK AO2 OVC V BKN SLP097 T01580120 58004 $
  • 291955Z AUTO 23008KT 9999 BKN025 OVC047 16/12 A2983 RMK AO2 SLP104 T01560118
  • 291905Z AUTO 22007KT 9999 FEW007 FEW017 BKN024 OVC030 16/12 A2983 RMK AO2 CIG 024V030 BKN V SCT SLP104 $
  • 291845Z AUTO 22011G21KT 9999 BKN027 OVC037 17/13 A2983 RMK AO2 CIG 027V033 SLP104 $

TAF TAF ETOU
Valido dal 29 a 20 ore il 31 a 02 ore UTC


292000Z 2920/3102 22010G15KT 9000 -SHRA FEW015 BKN020 OVC030 QNH2985INS
BECMG 2921/2922 VRB06KT 6000 -RA BKN004 OVC010 QNH2973INS
TEMPO 3001/3006 4000 -RA BR
BECMG 3007/3008 VRB06KT 6000 BR BKN040 QNH2970INS
BECMG 3009/3010 VRB06KT 9000 -SHRA FEW010 SCT020 OVC050 QNH2966INS
BECMG 3013/3014 VRB06KT 9000 -SHRA FEW030 BKN060 BKN100 QNH2965INS TX18/3012Z TN13/3004Z LAST NO AMDS AFT 2920 NEXT 3004



MetMap, La meteo Aeronautica in un colpo d'occhio ! - Copyright ORBIFLY Dicembre 2007 - Disclaimer

ORBIFLY MET'MAP TEAM :

Programmazione e sviluppo : Alexandra Zaïnal
Concezione : Baudouin d'Aumeries
Supporto tecnico e logistico : Manuel Goepfert
Aiuto : Marc-Olivier Méhu
Aiuto per la traduzione : Arnaldo La Scala




FONTI E CREDITI :

   NOAA